Terminal Aerodrome Forecast
Issued by NWS Springfield, MO

Current Version | Previous Version | Text Only | Print | Product List | Glossary On
Versions: 1 2 3 4 5 6 7 8 9 10 11 12 13 14 15 16 17 18 19 20 21 22 23 24
000
FTUS43 KSGF 071100
TAFSGF
TAF
KSGF 071120Z 0712/0812 23005KT 6SM -SHRA BR VCTS BKN025CB OVC035
     FM071600 30008KT 5SM -SHRA BR BKN007 OVC025
     FM072000 35007KT 3SM -SHRA BR OVC007
     FM080000 VRB04KT 2SM -SHRA BR OVC007
     FM081000 12009KT 4SM -SHRA BR OVC007=

USA.gov is the U.S. government's official web portal to all federal, state and local government web resources and services.